sensor_id;sensor_type;location;lat;lon;timestamp;P1;durP1;ratioP1;P2;durP2;ratioP2
44426;SDS011;30133;47.866;-4.222;2022-09-03T00:00:28;7.72;;;4.45;;
44426;SDS011;30133;47.866;-4.222;2022-09-03T00:05:50;6.50;;;4.22;;
44426;SDS011;30133;47.866;-4.222;2022-09-03T00:08:45;5.88;;;4.03;;
44426;SDS011;30133;47.866;-4.222;2022-09-03T00:11:32;9.30;;;4.40;;
44426;SDS011;30133;47.866;-4.222;2022-09-03T00:14:19;5.38;;;4.15;;
44426;SDS011;30133;47.866;-4.222;2022-09-03T00:19:46;6.50;;;4.15;;
44426;SDS011;30133;47.866;-4.222;2022-09-03T00:22:23;5.45;;;4.30;;
44426;SDS011;30133;47.866;-4.222;2022-09-03T00:25:04;6.43;;;4.05;;
44426;SDS011;30133;47.866;-4.222;2022-09-03T00:27:38;5.45;;;4.53;;
44426;SDS011;30133;47.866;-4.222;2022-09-03T00:30:12;8.82;;;4.63;;
44426;SDS011;30133;47.866;-4.222;2022-09-03T00:35:15;6.97;;;4.88;;
44426;SDS011;30133;47.866;-4.222;2022-09-03T00:37:53;7.28;;;4.32;;
44426;SDS011;30133;47.866;-4.222;2022-09-03T00:40:37;6.20;;;4.10;;
44426;SDS011;30133;47.866;-4.222;2022-09-03T00:46:51;5.80;;;4.30;;
44426;SDS011;30133;47.866;-4.222;2022-09-03T01:10:19;9.32;;;4.90;;
44426;SDS011;30133;47.866;-4.222;2022-09-03T01:13:06;6.55;;;4.32;;
44426;SDS011;30133;47.866;-4.222;2022-09-03T01:15:45;7.68;;;5.22;;
44426;SDS011;30133;47.866;-4.222;2022-09-03T01:18:48;6.93;;;4.65;;
44426;SDS011;30133;47.866;-4.222;2022-09-03T01:21:55;7.10;;;4.82;;
44426;SDS011;30133;47.866;-4.222;2022-09-03T01:30:31;6.22;;;4.53;;
44426;SDS011;30133;47.866;-4.222;2022-09-03T01:39:25;8.40;;;5.53;;
44426;SDS011;30133;47.866;-4.222;2022-09-03T01:50:46;6.63;;;5.15;;
44426;SDS011;30133;47.866;-4.222;2022-09-03T01:53:44;7.15;;;4.82;;
44426;SDS011;30133;47.866;-4.222;2022-09-03T02:02:38;6.63;;;5.00;;
44426;SDS011;30133;47.866;-4.222;2022-09-03T02:05:18;7.13;;;5.28;;
44426;SDS011;30133;47.866;-4.222;2022-09-03T02:08:02;6.03;;;4.57;;
44426;SDS011;30133;47.866;-4.222;2022-09-03T02:13:22;6.90;;;5.00;;
44426;SDS011;30133;47.866;-4.222;2022-09-03T02:16:09;6.60;;;4.70;;
44426;SDS011;30133;47.866;-4.222;2022-09-03T02:18:57;7.03;;;4.65;;
44426;SDS011;30133;47.866;-4.222;2022-09-03T02:21:50;7.20;;;4.65;;
44426;SDS011;30133;47.866;-4.222;2022-09-03T02:26:46;7.25;;;4.50;;
44426;SDS011;30133;47.866;-4.222;2022-09-03T02:29:14;7.53;;;4.82;;
44426;SDS011;30133;47.866;-4.222;2022-09-03T02:31:45;6.43;;;4.60;;
44426;SDS011;30133;47.866;-4.222;2022-09-03T02:34:13;6.70;;;4.90;;
44426;SDS011;30133;47.866;-4.222;2022-09-03T02:36:44;5.00;;;4.43;;
44426;SDS011;30133;47.866;-4.222;2022-09-03T02:39:13;6.50;;;4.72;;
44426;SDS011;30133;47.866;-4.222;2022-09-03T02:41:41;5.32;;;4.57;;
44426;SDS011;30133;47.866;-4.222;2022-09-03T02:44:25;6.05;;;4.40;;
44426;SDS011;30133;47.866;-4.222;2022-09-03T02:47:03;7.38;;;4.68;;
44426;SDS011;30133;47.866;-4.222;2022-09-03T02:49:32;5.95;;;4.53;;
44426;SDS011;30133;47.866;-4.222;2022-09-03T02:51:59;5.28;;;4.13;;
44426;SDS011;30133;47.866;-4.222;2022-09-03T02:54:34;6.40;;;4.55;;
44426;SDS011;30133;47.866;-4.222;2022-09-03T02:57:13;6.20;;;4.35;;
44426;SDS011;30133;47.866;-4.222;2022-09-03T02:59:41;4.95;;;4.20;;
44426;SDS011;30133;47.866;-4.222;2022-09-03T03:02:10;5.63;;;4.20;;
44426;SDS011;30133;47.866;-4.222;2022-09-03T03:04:38;6.10;;;4.20;;
44426;SDS011;30133;47.866;-4.222;2022-09-03T03:07:04;6.18;;;4.70;;
44426;SDS011;30133;47.866;-4.222;2022-09-03T03:09:31;5.97;;;4.95;;
44426;SDS011;30133;47.866;-4.222;2022-09-03T03:11:57;6.63;;;4.50;;
44426;SDS011;30133;47.866;-4.222;2022-09-03T03:14:28;6.00;;;4.03;;
44426;SDS011;30133;47.866;-4.222;2022-09-03T03:16:54;5.97;;;4.60;;
44426;SDS011;30133;47.866;-4.222;2022-09-03T03:19:20;5.68;;;4.70;;
44426;SDS011;30133;47.866;-4.222;2022-09-03T03:21:46;5.22;;;4.50;;
44426;SDS011;30133;47.866;-4.222;2022-09-03T03:24:13;6.05;;;4.30;;
44426;SDS011;30133;47.866;-4.222;2022-09-03T03:26:39;6.22;;;4.78;;
44426;SDS011;30133;47.866;-4.222;2022-09-03T03:29:05;6.60;;;4.82;;
44426;SDS011;30133;47.866;-4.222;2022-09-03T03:31:32;5.53;;;4.57;;
44426;SDS011;30133;47.866;-4.222;2022-09-03T03:34:01;7.30;;;5.10;;
44426;SDS011;30133;47.866;-4.222;2022-09-03T03:36:30;6.38;;;4.45;;
44426;SDS011;30133;47.866;-4.222;2022-09-03T03:38:58;7.60;;;4.68;;
44426;SDS011;30133;47.866;-4.222;2022-09-03T03:41:30;6.53;;;4.57;;
44426;SDS011;30133;47.866;-4.222;2022-09-03T03:44:03;6.47;;;4.82;;
44426;SDS011;30133;47.866;-4.222;2022-09-03T03:46:37;8.73;;;5.03;;
44426;SDS011;30133;47.866;-4.222;2022-09-03T03:49:06;6.85;;;4.93;;
44426;SDS011;30133;47.866;-4.222;2022-09-03T03:51:33;9.10;;;4.68;;
44426;SDS011;30133;47.866;-4.222;2022-09-03T03:54:01;5.45;;;4.28;;
44426;SDS011;30133;47.866;-4.222;2022-09-03T03:56:28;7.43;;;4.03;;
44426;SDS011;30133;47.866;-4.222;2022-09-03T03:58:54;5.63;;;4.15;;
44426;SDS011;30133;47.866;-4.222;2022-09-03T04:01:21;6.57;;;4.45;;
44426;SDS011;30133;47.866;-4.222;2022-09-03T04:03:53;6.85;;;4.72;;
44426;SDS011;30133;47.866;-4.222;2022-09-03T04:06:25;6.38;;;4.20;;
44426;SDS011;30133;47.866;-4.222;2022-09-03T04:08:52;6.13;;;4.28;;
44426;SDS011;30133;47.866;-4.222;2022-09-03T04:11:20;4.82;;;4.05;;
44426;SDS011;30133;47.866;-4.222;2022-09-03T04:13:48;4.53;;;3.92;;
44426;SDS011;30133;47.866;-4.222;2022-09-03T04:16:17;7.43;;;4.32;;
44426;SDS011;30133;47.866;-4.222;2022-09-03T04:18:49;6.32;;;4.88;;
44426;SDS011;30133;47.866;-4.222;2022-09-03T04:21:18;5.28;;;4.00;;
44426;SDS011;30133;47.866;-4.222;2022-09-03T04:23:50;6.85;;;4.22;;
44426;SDS011;30133;47.866;-4.222;2022-09-03T04:26:21;6.55;;;4.90;;
44426;SDS011;30133;47.866;-4.222;2022-09-03T04:28:57;6.43;;;4.50;;
44426;SDS011;30133;47.866;-4.222;2022-09-03T04:31:27;6.53;;;4.50;;
44426;SDS011;30133;47.866;-4.222;2022-09-03T04:33:53;7.20;;;4.68;;
44426;SDS011;30133;47.866;-4.222;2022-09-03T04:36:22;7.35;;;4.40;;
44426;SDS011;30133;47.866;-4.222;2022-09-03T04:38:51;7.43;;;4.80;;
44426;SDS011;30133;47.866;-4.222;2022-09-03T04:41:21;8.85;;;4.70;;
44426;SDS011;30133;47.866;-4.222;2022-09-03T04:43:51;7.68;;;4.68;;
44426;SDS011;30133;47.866;-4.222;2022-09-03T04:46:22;6.32;;;4.03;;
44426;SDS011;30133;47.866;-4.222;2022-09-03T04:48:51;5.45;;;4.30;;
44426;SDS011;30133;47.866;-4.222;2022-09-03T04:51:21;6.47;;;4.47;;
44426;SDS011;30133;47.866;-4.222;2022-09-03T04:53:53;8.60;;;4.85;;
44426;SDS011;30133;47.866;-4.222;2022-09-03T04:56:23;5.30;;;3.83;;
44426;SDS011;30133;47.866;-4.222;2022-09-03T04:58:56;6.18;;;4.25;;
44426;SDS011;30133;47.866;-4.222;2022-09-03T05:01:26;7.40;;;4.38;;
44426;SDS011;30133;47.866;-4.222;2022-09-03T05:03:55;6.45;;;4.82;;
44426;SDS011;30133;47.866;-4.222;2022-09-03T05:06:23;5.25;;;3.90;;
44426;SDS011;30133;47.866;-4.222;2022-09-03T05:08:52;6.95;;;4.63;;
44426;SDS011;30133;47.866;-4.222;2022-09-03T05:11:19;4.97;;;3.95;;
44426;SDS011;30133;47.866;-4.222;2022-09-03T05:13:46;5.85;;;4.40;;
44426;SDS011;30133;47.866;-4.222;2022-09-03T05:16:14;4.93;;;4.13;;
44426;SDS011;30133;47.866;-4.222;2022-09-03T05:18:41;5.88;;;4.55;;
44426;SDS011;30133;47.866;-4.222;2022-09-03T05:21:09;6.88;;;4.13;;
44426;SDS011;30133;47.866;-4.222;2022-09-03T05:23:39;8.70;;;5.18;;
44426;SDS011;30133;47.866;-4.222;2022-09-03T05:26:10;7.38;;;4.25;;
44426;SDS011;30133;47.866;-4.222;2022-09-03T05:28:46;5.22;;;4.00;;
44426;SDS011;30133;47.866;-4.222;2022-09-03T05:31:17;4.53;;;3.47;;
44426;SDS011;30133;47.866;-4.222;2022-09-03T05:33:48;6.47;;;4.38;;
44426;SDS011;30133;47.866;-4.222;2022-09-03T05:36:18;5.35;;;4.18;;
44426;SDS011;30133;47.866;-4.222;2022-09-03T05:38:47;5.55;;;4.00;;
44426;SDS011;30133;47.866;-4.222;2022-09-03T05:41:14;5.90;;;4.18;;
44426;SDS011;30133;47.866;-4.222;2022-09-03T05:43:43;6.28;;;4.53;;
44426;SDS011;30133;47.866;-4.222;2022-09-03T05:46:24;4.30;;;3.75;;
44426;SDS011;30133;47.866;-4.222;2022-09-03T05:49:03;6.60;;;4.45;;
44426;SDS011;30133;47.866;-4.222;2022-09-03T05:51:31;7.70;;;4.32;;
44426;SDS011;30133;47.866;-4.222;2022-09-03T05:54:01;8.35;;;4.88;;
44426;SDS011;30133;47.866;-4.222;2022-09-03T05:56:29;6.47;;;4.38;;
44426;SDS011;30133;47.866;-4.222;2022-09-03T05:58:58;6.18;;;3.97;;
44426;SDS011;30133;47.866;-4.222;2022-09-03T06:01:31;5.60;;;4.00;;
44426;SDS011;30133;47.866;-4.222;2022-09-03T06:04:06;7.43;;;4.57;;
44426;SDS011;30133;47.866;-4.222;2022-09-03T06:06:38;5.03;;;3.78;;
44426;SDS011;30133;47.866;-4.222;2022-09-03T06:09:09;5.47;;;3.95;;
44426;SDS011;30133;47.866;-4.222;2022-09-03T06:11:39;6.35;;;4.07;;
44426;SDS011;30133;47.866;-4.222;2022-09-03T06:14:07;5.85;;;4.35;;
44426;SDS011;30133;47.866;-4.222;2022-09-03T06:16:37;5.45;;;4.10;;
44426;SDS011;30133;47.866;-4.222;2022-09-03T06:19:10;5.85;;;4.38;;
44426;SDS011;30133;47.866;-4.222;2022-09-03T06:21:39;8.40;;;4.05;;
44426;SDS011;30133;47.866;-4.222;2022-09-03T06:24:08;4.82;;;3.60;;
44426;SDS011;30133;47.866;-4.222;2022-09-03T06:26:40;5.40;;;3.97;;
44426;SDS011;30133;47.866;-4.222;2022-09-03T06:29:07;4.03;;;3.28;;
44426;SDS011;30133;47.866;-4.222;2022-09-03T06:31:33;4.95;;;3.42;;
44426;SDS011;30133;47.866;-4.222;2022-09-03T06:33:59;5.93;;;3.78;;
44426;SDS011;30133;47.866;-4.222;2022-09-03T06:36:26;5.45;;;3.78;;
44426;SDS011;30133;47.866;-4.222;2022-09-03T06:38:54;6.40;;;3.95;;
44426;SDS011;30133;47.866;-4.222;2022-09-03T06:41:23;6.38;;;3.95;;
44426;SDS011;30133;47.866;-4.222;2022-09-03T06:43:59;6.10;;;3.92;;
44426;SDS011;30133;47.866;-4.222;2022-09-03T06:49:04;6.28;;;4.20;;
44426;SDS011;30133;47.866;-4.222;2022-09-03T06:51:34;6.32;;;4.35;;
44426;SDS011;30133;47.866;-4.222;2022-09-03T06:54:14;4.75;;;3.60;;
44426;SDS011;30133;47.866;-4.222;2022-09-03T06:56:47;6.53;;;4.40;;
44426;SDS011;30133;47.866;-4.222;2022-09-03T06:59:16;8.68;;;4.07;;
44426;SDS011;30133;47.866;-4.222;2022-09-03T07:01:44;6.20;;;4.05;;
44426;SDS011;30133;47.866;-4.222;2022-09-03T07:04:14;5.43;;;3.78;;
44426;SDS011;30133;47.866;-4.222;2022-09-03T07:06:41;6.18;;;3.78;;
44426;SDS011;30133;47.866;-4.222;2022-09-03T07:09:10;5.68;;;3.22;;
44426;SDS011;30133;47.866;-4.222;2022-09-03T07:11:40;3.90;;;2.95;;
44426;SDS011;30133;47.866;-4.222;2022-09-03T07:14:12;5.88;;;3.88;;
44426;SDS011;30133;47.866;-4.222;2022-09-03T07:16:39;5.38;;;3.45;;
44426;SDS011;30133;47.866;-4.222;2022-09-03T07:19:08;4.50;;;3.65;;
44426;SDS011;30133;47.866;-4.222;2022-09-03T07:21:34;4.90;;;3.20;;
44426;SDS011;30133;47.866;-4.222;2022-09-03T07:24:03;6.28;;;3.65;;
44426;SDS011;30133;47.866;-4.222;2022-09-03T07:26:32;7.13;;;3.70;;
44426;SDS011;30133;47.866;-4.222;2022-09-03T07:29:03;5.68;;;3.63;;
44426;SDS011;30133;47.866;-4.222;2022-09-03T07:31:34;5.20;;;3.80;;
44426;SDS011;30133;47.866;-4.222;2022-09-03T07:34:07;5.40;;;3.38;;
44426;SDS011;30133;47.866;-4.222;2022-09-03T07:36:40;4.75;;;3.65;;
44426;SDS011;30133;47.866;-4.222;2022-09-03T07:39:11;5.70;;;3.42;;
44426;SDS011;30133;47.866;-4.222;2022-09-03T07:41:42;6.90;;;3.97;;
44426;SDS011;30133;47.866;-4.222;2022-09-03T07:44:10;7.63;;;3.75;;
44426;SDS011;30133;47.866;-4.222;2022-09-03T07:46:43;6.13;;;3.92;;
44426;SDS011;30133;47.866;-4.222;2022-09-03T07:49:15;5.32;;;3.53;;
44426;SDS011;30133;47.866;-4.222;2022-09-03T07:51:45;6.05;;;3.78;;
44426;SDS011;30133;47.866;-4.222;2022-09-03T07:54:16;6.30;;;4.28;;
44426;SDS011;30133;47.866;-4.222;2022-09-03T07:56:44;5.65;;;3.35;;
44426;SDS011;30133;47.866;-4.222;2022-09-03T07:59:12;3.65;;;2.72;;
44426;SDS011;30133;47.866;-4.222;2022-09-03T08:01:39;5.68;;;3.63;;
44426;SDS011;30133;47.866;-4.222;2022-09-03T08:04:05;4.03;;;3.40;;
44426;SDS011;30133;47.866;-4.222;2022-09-03T08:06:33;7.88;;;2.80;;
44426;SDS011;30133;47.866;-4.222;2022-09-03T08:09:00;6.28;;;2.95;;
44426;SDS011;30133;47.866;-4.222;2022-09-03T08:11:29;8.02;;;3.40;;
44426;SDS011;30133;47.866;-4.222;2022-09-03T08:13:57;11.00;;;2.47;;
44426;SDS011;30133;47.866;-4.222;2022-09-03T08:16:31;19.45;;;5.78;;
44426;SDS011;30133;47.866;-4.222;2022-09-03T08:19:00;9.65;;;3.00;;
44426;SDS011;30133;47.866;-4.222;2022-09-03T08:21:30;9.65;;;3.10;;
44426;SDS011;30133;47.866;-4.222;2022-09-03T08:23:57;7.40;;;3.22;;
44426;SDS011;30133;47.866;-4.222;2022-09-03T08:26:27;9.43;;;3.55;;
44426;SDS011;30133;47.866;-4.222;2022-09-03T08:28:58;7.07;;;2.85;;
44426;SDS011;30133;47.866;-4.222;2022-09-03T08:31:28;6.47;;;2.40;;
44426;SDS011;30133;47.866;-4.222;2022-09-03T08:33:58;12.10;;;2.90;;
44426;SDS011;30133;47.866;-4.222;2022-09-03T08:36:31;9.52;;;2.72;;
44426;SDS011;30133;47.866;-4.222;2022-09-03T08:39:01;5.50;;;2.50;;
44426;SDS011;30133;47.866;-4.222;2022-09-03T08:44:49;12.05;;;2.88;;
44426;SDS011;30133;47.866;-4.222;2022-09-03T08:50:24;13.32;;;3.00;;
44426;SDS011;30133;47.866;-4.222;2022-09-03T08:53:07;7.80;;;2.17;;
44426;SDS011;30133;47.866;-4.222;2022-09-03T08:58:35;11.90;;;2.33;;
44426;SDS011;30133;47.866;-4.222;2022-09-03T09:10:40;3.15;;;1.88;;
44426;SDS011;30133;47.866;-4.222;2022-09-03T09:18:56;20.73;;;3.22;;
44426;SDS011;30133;47.866;-4.222;2022-09-03T09:21:51;11.52;;;2.55;;
44426;SDS011;30133;47.866;-4.222;2022-09-03T09:24:26;12.35;;;2.10;;
44426;SDS011;30133;47.866;-4.222;2022-09-03T09:27:02;5.88;;;1.95;;
44426;SDS011;30133;47.866;-4.222;2022-09-03T09:29:31;9.23;;;2.15;;
44426;SDS011;30133;47.866;-4.222;2022-09-03T09:32:02;13.20;;;2.17;;
44426;SDS011;30133;47.866;-4.222;2022-09-03T09:34:35;7.40;;;2.75;;
44426;SDS011;30133;47.866;-4.222;2022-09-03T09:37:10;8.18;;;2.70;;
44426;SDS011;30133;47.866;-4.222;2022-09-03T09:39:40;8.25;;;2.00;;
44426;SDS011;30133;47.866;-4.222;2022-09-03T09:42:20;13.73;;;2.70;;
44426;SDS011;30133;47.866;-4.222;2022-09-03T09:44:48;11.35;;;2.40;;
44426;SDS011;30133;47.866;-4.222;2022-09-03T09:47:25;13.63;;;2.20;;
44426;SDS011;30133;47.866;-4.222;2022-09-03T09:50:14;3.95;;;1.85;;
44426;SDS011;30133;47.866;-4.222;2022-09-03T09:52:46;20.50;;;2.22;;
44426;SDS011;30133;47.866;-4.222;2022-09-03T09:55:15;20.60;;;2.72;;
44426;SDS011;30133;47.866;-4.222;2022-09-03T09:57:44;8.55;;;2.92;;
44426;SDS011;30133;47.866;-4.222;2022-09-03T10:00:13;18.33;;;2.78;;
44426;SDS011;30133;47.866;-4.222;2022-09-03T10:02:49;12.48;;;2.65;;
44426;SDS011;30133;47.866;-4.222;2022-09-03T10:05:28;13.18;;;2.47;;
44426;SDS011;30133;47.866;-4.222;2022-09-03T10:08:04;12.27;;;2.55;;
44426;SDS011;30133;47.866;-4.222;2022-09-03T10:10:47;8.75;;;2.10;;
44426;SDS011;30133;47.866;-4.222;2022-09-03T10:13:18;11.52;;;2.72;;
44426;SDS011;30133;47.866;-4.222;2022-09-03T10:15:54;10.20;;;2.00;;
44426;SDS011;30133;47.866;-4.222;2022-09-03T10:21:13;5.40;;;1.67;;
44426;SDS011;30133;47.866;-4.222;2022-09-03T10:27:08;7.95;;;2.20;;
44426;SDS011;30133;47.866;-4.222;2022-09-03T10:29:37;7.10;;;2.50;;
44426;SDS011;30133;47.866;-4.222;2022-09-03T10:35:45;9.43;;;1.85;;
44426;SDS011;30133;47.866;-4.222;2022-09-03T10:38:26;7.35;;;2.17;;
44426;SDS011;30133;47.866;-4.222;2022-09-03T10:44:29;17.23;;;2.58;;
44426;SDS011;30133;47.866;-4.222;2022-09-03T10:50:52;21.40;;;2.70;;
44426;SDS011;30133;47.866;-4.222;2022-09-03T10:57:07;3.20;;;2.03;;
44426;SDS011;30133;47.866;-4.222;2022-09-03T11:00:07;4.50;;;2.20;;
44426;SDS011;30133;47.866;-4.222;2022-09-03T11:02:45;3.55;;;1.83;;
44426;SDS011;30133;47.866;-4.222;2022-09-03T11:05:28;4.53;;;2.00;;
44426;SDS011;30133;47.866;-4.222;2022-09-03T11:08:15;15.60;;;2.88;;
44426;SDS011;30133;47.866;-4.222;2022-09-03T11:11:13;5.38;;;1.65;;
44426;SDS011;30133;47.866;-4.222;2022-09-03T11:16:29;6.22;;;2.10;;
44426;SDS011;30133;47.866;-4.222;2022-09-03T11:19:18;8.35;;;2.15;;
44426;SDS011;30133;47.866;-4.222;2022-09-03T11:22:02;8.02;;;2.08;;
44426;SDS011;30133;47.866;-4.222;2022-09-03T11:24:31;5.65;;;1.88;;
44426;SDS011;30133;47.866;-4.222;2022-09-03T11:27:03;1.75;;;1.65;;
44426;SDS011;30133;47.866;-4.222;2022-09-03T11:29:50;5.35;;;1.92;;
44426;SDS011;30133;47.866;-4.222;2022-09-03T11:32:48;4.80;;;1.73;;
44426;SDS011;30133;47.866;-4.222;2022-09-03T11:37:59;5.05;;;2.00;;
44426;SDS011;30133;47.866;-4.222;2022-09-03T11:43:54;4.32;;;1.98;;
44426;SDS011;30133;47.866;-4.222;2022-09-03T11:48:50;4.18;;;1.85;;
44426;SDS011;30133;47.866;-4.222;2022-09-03T11:56:24;3.35;;;2.13;;
44426;SDS011;30133;47.866;-4.222;2022-09-03T12:01:39;2.45;;;1.73;;
44426;SDS011;30133;47.866;-4.222;2022-09-03T12:04:48;5.47;;;1.70;;
44426;SDS011;30133;47.866;-4.222;2022-09-03T12:14:22;3.38;;;1.80;;
44426;SDS011;30133;47.866;-4.222;2022-09-03T12:20:41;5.00;;;2.33;;
44426;SDS011;30133;47.866;-4.222;2022-09-03T12:23:10;6.07;;;2.08;;
44426;SDS011;30133;47.866;-4.222;2022-09-03T12:25:44;4.50;;;2.00;;
44426;SDS011;30133;47.866;-4.222;2022-09-03T12:28:15;4.57;;;2.10;;
44426;SDS011;30133;47.866;-4.222;2022-09-03T12:31:04;3.88;;;2.05;;
44426;SDS011;30133;47.866;-4.222;2022-09-03T12:33:46;8.07;;;2.05;;
44426;SDS011;30133;47.866;-4.222;2022-09-03T12:36:23;4.82;;;1.95;;
44426;SDS011;30133;47.866;-4.222;2022-09-03T12:38:51;3.97;;;1.88;;
44426;SDS011;30133;47.866;-4.222;2022-09-03T12:41:19;2.95;;;1.63;;
44426;SDS011;30133;47.866;-4.222;2022-09-03T12:43:52;2.35;;;1.67;;
44426;SDS011;30133;47.866;-4.222;2022-09-03T12:46:26;2.92;;;1.50;;
44426;SDS011;30133;47.866;-4.222;2022-09-03T12:49:02;4.05;;;1.80;;
44426;SDS011;30133;47.866;-4.222;2022-09-03T12:51:39;4.30;;;1.70;;
44426;SDS011;30133;47.866;-4.222;2022-09-03T12:54:09;2.85;;;1.65;;
44426;SDS011;30133;47.866;-4.222;2022-09-03T12:56:41;3.95;;;1.75;;
44426;SDS011;30133;47.866;-4.222;2022-09-03T12:59:15;2.50;;;1.83;;
44426;SDS011;30133;47.866;-4.222;2022-09-03T13:01:48;3.40;;;1.97;;
44426;SDS011;30133;47.866;-4.222;2022-09-03T13:04:32;1.85;;;1.40;;
44426;SDS011;30133;47.866;-4.222;2022-09-03T13:09:48;3.33;;;1.50;;
44426;SDS011;30133;47.866;-4.222;2022-09-03T13:12:21;2.90;;;2.05;;
44426;SDS011;30133;47.866;-4.222;2022-09-03T13:15:07;2.53;;;1.52;;
44426;SDS011;30133;47.866;-4.222;2022-09-03T13:20:40;3.65;;;1.65;;
44426;SDS011;30133;47.866;-4.222;2022-09-03T13:23:27;12.85;;;1.95;;
44426;SDS011;30133;47.866;-4.222;2022-09-03T13:26:32;8.98;;;2.35;;
44426;SDS011;30133;47.866;-4.222;2022-09-03T13:31:55;5.07;;;1.55;;
44426;SDS011;30133;47.866;-4.222;2022-09-03T13:37:50;10.65;;;1.80;;
44426;SDS011;30133;47.866;-4.222;2022-09-03T13:40:53;7.63;;;2.17;;
44426;SDS011;30133;47.866;-4.222;2022-09-03T13:43:45;6.40;;;2.72;;
44426;SDS011;30133;47.866;-4.222;2022-09-03T13:58:34;2.60;;;1.10;;
44426;SDS011;30133;47.866;-4.222;2022-09-03T14:03:57;6.32;;;1.63;;
44426;SDS011;30133;47.866;-4.222;2022-09-03T14:06:40;4.65;;;1.60;;
44426;SDS011;30133;47.866;-4.222;2022-09-03T14:12:24;7.35;;;2.25;;
44426;SDS011;30133;47.866;-4.222;2022-09-03T14:15:25;7.10;;;1.73;;
44426;SDS011;30133;47.866;-4.222;2022-09-03T14:21:00;18.38;;;2.15;;
44426;SDS011;30133;47.866;-4.222;2022-09-03T14:23:39;3.13;;;1.90;;
44426;SDS011;30133;47.866;-4.222;2022-09-03T14:26:32;22.13;;;2.60;;
44426;SDS011;30133;47.866;-4.222;2022-09-03T14:34:37;18.55;;;3.22;;
44426;SDS011;30133;47.866;-4.222;2022-09-03T14:43:24;26.10;;;3.55;;
44426;SDS011;30133;47.866;-4.222;2022-09-03T14:46:54;10.65;;;3.70;;
44426;SDS011;30133;47.866;-4.222;2022-09-03T14:58:16;15.73;;;2.90;;
44426;SDS011;30133;47.866;-4.222;2022-09-03T15:03:54;11.80;;;2.85;;
44426;SDS011;30133;47.866;-4.222;2022-09-03T15:06:35;22.13;;;3.20;;
44426;SDS011;30133;47.866;-4.222;2022-09-03T15:15:32;12.30;;;2.70;;
44426;SDS011;30133;47.866;-4.222;2022-09-03T15:18:19;14.55;;;2.67;;
44426;SDS011;30133;47.866;-4.222;2022-09-03T15:20:52;12.48;;;2.40;;
44426;SDS011;30133;47.866;-4.222;2022-09-03T15:37:17;10.82;;;2.45;;
44426;SDS011;30133;47.866;-4.222;2022-09-03T15:40:07;10.32;;;2.40;;
44426;SDS011;30133;47.866;-4.222;2022-09-03T15:42:47;6.40;;;2.30;;
44426;SDS011;30133;47.866;-4.222;2022-09-03T15:51:07;12.65;;;4.07;;
44426;SDS011;30133;47.866;-4.222;2022-09-03T16:02:04;6.18;;;2.53;;
44426;SDS011;30133;47.866;-4.222;2022-09-03T16:07:28;7.18;;;2.58;;
44426;SDS011;30133;47.866;-4.222;2022-09-03T16:10:19;4.90;;;2.40;;
44426;SDS011;30133;47.866;-4.222;2022-09-03T16:16:02;11.80;;;2.55;;
44426;SDS011;30133;47.866;-4.222;2022-09-03T16:24:02;12.55;;;2.80;;
44426;SDS011;30133;47.866;-4.222;2022-09-03T16:30:09;9.02;;;2.53;;
44426;SDS011;30133;47.866;-4.222;2022-09-03T16:38:46;10.53;;;2.30;;
44426;SDS011;30133;47.866;-4.222;2022-09-03T16:44:57;4.82;;;2.38;;
44426;SDS011;30133;47.866;-4.222;2022-09-03T16:50:41;7.78;;;2.80;;
44426;SDS011;30133;47.866;-4.222;2022-09-03T16:53:22;4.50;;;2.15;;
44426;SDS011;30133;47.866;-4.222;2022-09-03T16:59:30;5.82;;;2.22;;
44426;SDS011;30133;47.866;-4.222;2022-09-03T17:08:38;7.55;;;2.55;;
44426;SDS011;30133;47.866;-4.222;2022-09-03T17:11:37;8.70;;;2.92;;
44426;SDS011;30133;47.866;-4.222;2022-09-03T17:30:57;6.75;;;2.70;;
44426;SDS011;30133;47.866;-4.222;2022-09-03T17:45:21;5.60;;;2.05;;
44426;SDS011;30133;47.866;-4.222;2022-09-03T17:54:32;9.65;;;2.60;;
44426;SDS011;30133;47.866;-4.222;2022-09-03T17:57:21;5.50;;;2.35;;
44426;SDS011;30133;47.866;-4.222;2022-09-03T18:02:36;8.15;;;3.08;;
44426;SDS011;30133;47.866;-4.222;2022-09-03T18:05:25;5.80;;;2.13;;
44426;SDS011;30133;47.866;-4.222;2022-09-03T18:08:29;4.55;;;2.20;;
44426;SDS011;30133;47.866;-4.222;2022-09-03T18:11:38;5.10;;;2.50;;
44426;SDS011;30133;47.866;-4.222;2022-09-03T18:15:12;3.83;;;2.70;;
44426;SDS011;30133;47.866;-4.222;2022-09-03T18:17:40;11.48;;;2.47;;
44426;SDS011;30133;47.866;-4.222;2022-09-03T18:20:19;7.57;;;2.00;;
44426;SDS011;30133;47.866;-4.222;2022-09-03T18:23:20;7.75;;;2.35;;
44426;SDS011;30133;47.866;-4.222;2022-09-03T18:26:15;3.63;;;1.98;;
44426;SDS011;30133;47.866;-4.222;2022-09-03T18:29:14;7.03;;;2.72;;
44426;SDS011;30133;47.866;-4.222;2022-09-03T18:32:21;4.60;;;2.15;;
44426;SDS011;30133;47.866;-4.222;2022-09-03T18:35:06;3.30;;;1.75;;
44426;SDS011;30133;47.866;-4.222;2022-09-03T18:37:52;3.90;;;2.22;;
44426;SDS011;30133;47.866;-4.222;2022-09-03T18:44:02;4.57;;;2.53;;
44426;SDS011;30133;47.866;-4.222;2022-09-03T18:47:05;5.05;;;2.35;;
44426;SDS011;30133;47.866;-4.222;2022-09-03T18:53:41;4.47;;;2.35;;
44426;SDS011;30133;47.866;-4.222;2022-09-03T18:59:55;7.90;;;2.17;;
44426;SDS011;30133;47.866;-4.222;2022-09-03T19:03:34;6.35;;;1.90;;
44426;SDS011;30133;47.866;-4.222;2022-09-03T19:09:40;4.63;;;1.98;;
44426;SDS011;30133;47.866;-4.222;2022-09-03T19:13:03;4.00;;;2.10;;
44426;SDS011;30133;47.866;-4.222;2022-09-03T19:16:06;7.53;;;2.05;;
44426;SDS011;30133;47.866;-4.222;2022-09-03T19:22:26;6.18;;;2.00;;
44426;SDS011;30133;47.866;-4.222;2022-09-03T19:25:21;6.63;;;1.90;;
44426;SDS011;30133;47.866;-4.222;2022-09-03T19:28:12;8.05;;;3.08;;
44426;SDS011;30133;47.866;-4.222;2022-09-03T19:34:49;5.55;;;2.42;;
44426;SDS011;30133;47.866;-4.222;2022-09-03T19:40:54;3.33;;;2.00;;
44426;SDS011;30133;47.866;-4.222;2022-09-03T19:47:25;4.53;;;2.22;;
44426;SDS011;30133;47.866;-4.222;2022-09-03T19:50:38;4.22;;;1.75;;
44426;SDS011;30133;47.866;-4.222;2022-09-03T19:53:40;6.22;;;1.65;;
44426;SDS011;30133;47.866;-4.222;2022-09-03T19:56:26;5.45;;;1.92;;
44426;SDS011;30133;47.866;-4.222;2022-09-03T19:59:16;4.20;;;2.03;;
44426;SDS011;30133;47.866;-4.222;2022-09-03T20:02:04;6.72;;;2.40;;
44426;SDS011;30133;47.866;-4.222;2022-09-03T20:04:58;3.47;;;2.05;;
44426;SDS011;30133;47.866;-4.222;2022-09-03T20:07:48;4.75;;;2.00;;
44426;SDS011;30133;47.866;-4.222;2022-09-03T20:10:36;7.28;;;2.00;;
44426;SDS011;30133;47.866;-4.222;2022-09-03T20:24:09;3.20;;;1.88;;
44426;SDS011;30133;47.866;-4.222;2022-09-03T20:29:58;2.95;;;1.80;;
44426;SDS011;30133;47.866;-4.222;2022-09-03T20:57:59;4.13;;;1.83;;
44426;SDS011;30133;47.866;-4.222;2022-09-03T21:00:49;7.10;;;2.25;;
44426;SDS011;30133;47.866;-4.222;2022-09-03T21:07:10;4.55;;;2.10;;
44426;SDS011;30133;47.866;-4.222;2022-09-03T21:18:30;6.47;;;2.00;;
44426;SDS011;30133;47.866;-4.222;2022-09-03T21:21:39;3.65;;;1.75;;
44426;SDS011;30133;47.866;-4.222;2022-09-03T21:24:48;7.57;;;2.35;;
44426;SDS011;30133;47.866;-4.222;2022-09-03T21:27:38;3.95;;;2.50;;
44426;SDS011;30133;47.866;-4.222;2022-09-03T21:30:24;6.30;;;2.40;;
44426;SDS011;30133;47.866;-4.222;2022-09-03T21:32:57;5.35;;;2.00;;
44426;SDS011;30133;47.866;-4.222;2022-09-03T21:35:39;2.95;;;1.60;;
44426;SDS011;30133;47.866;-4.222;2022-09-03T21:38:15;4.07;;;1.80;;
44426;SDS011;30133;47.866;-4.222;2022-09-03T21:41:33;3.70;;;1.88;;
44426;SDS011;30133;47.866;-4.222;2022-09-03T21:44:07;3.45;;;1.88;;
44426;SDS011;30133;47.866;-4.222;2022-09-03T21:46:46;3.90;;;1.70;;
44426;SDS011;30133;47.866;-4.222;2022-09-03T21:49:30;3.38;;;1.67;;
44426;SDS011;30133;47.866;-4.222;2022-09-03T21:52:13;4.78;;;2.03;;
44426;SDS011;30133;47.866;-4.222;2022-09-03T21:54:56;5.22;;;2.15;;
44426;SDS011;30133;47.866;-4.222;2022-09-03T22:00:40;3.42;;;1.95;;
44426;SDS011;30133;47.866;-4.222;2022-09-03T22:03:07;4.07;;;1.92;;